Time;durP1;ratioP1;P1;durP2;ratioP2;P2;SDS_P1;SDS_P2;PMS_P1;PMS_P2;Temp;Humidity;BMP_temperature;BMP_pressure;BME280_temperature;BME280_humidity;BME280_pressure;Samples;Min_cycle;Max_cycle;Signal;HPM_P1;HPM_P2
2023/06/01 00:01:14;;;;;;;12.30;5.10;;;;;;;;;;5031312;28;20124;-72
2023/06/01 00:03:40;;;;;;;18.30;5.63;;;;;;;;;;5031982;28;20058;-73
2023/06/01 00:06:06;;;;;;;12.25;5.10;;;;;;;;;;5032026;28;20063;-72
2023/06/01 00:08:32;;;;;;;14.93;5.57;;;;;;;;;;5031833;28;20076;-73
2023/06/01 00:10:59;;;;;;;13.80;5.05;;;;;;;;;;5062286;28;20048;-73
2023/06/01 00:13:25;;;;;;;13.27;4.85;;;;;;;;;;5051644;28;20140;-73
2023/06/01 00:15:51;;;;;;;12.45;5.10;;;;;;;;;;5052048;28;20076;-73
2023/06/01 00:18:17;;;;;;;16.50;5.38;;;;;;;;;;5033344;28;20041;-73
2023/06/01 00:20:44;;;;;;;14.18;5.50;;;;;;;;;;5017245;28;20121;-73
2023/06/01 00:23:10;;;;;;;15.90;5.82;;;;;;;;;;5034117;28;20049;-73
2023/06/01 00:25:36;;;;;;;16.38;5.53;;;;;;;;;;5051726;28;20045;-73
2023/06/01 00:28:02;;;;;;;16.58;5.68;;;;;;;;;;5051489;28;20051;-73
2023/06/01 00:30:28;;;;;;;11.85;5.15;;;;;;;;;;5052747;28;20040;-73
2023/06/01 00:32:54;;;;;;;12.77;4.97;;;;;;;;;;5052978;28;20083;-73
2023/06/01 00:35:20;;;;;;;16.50;5.38;;;;;;;;;;5052024;28;20130;-73
2023/06/01 00:37:46;;;;;;;13.90;5.20;;;;;;;;;;5051700;28;20051;-73
2023/06/01 00:40:12;;;;;;;11.95;4.75;;;;;;;;;;5055269;28;20045;-73
2023/06/01 00:42:38;;;;;;;12.00;4.85;;;;;;;;;;5055398;28;20045;-73
2023/06/01 00:45:05;;;;;;;14.02;5.20;;;;;;;;;;5055569;28;20131;-73
2023/06/01 00:47:37;;;;;;;13.35;5.45;;;;;;;;;;5055080;28;20487;-73
2023/06/01 00:50:03;;;;;;;10.93;4.68;;;;;;;;;;5036936;28;20053;-73
2023/06/01 00:52:30;;;;;;;14.00;5.22;;;;;;;;;;5048963;28;20033;-73
2023/06/01 00:54:56;;;;;;;14.45;5.70;;;;;;;;;;5033148;28;20391;-73
2023/06/01 00:57:26;;;;;;;13.80;5.43;;;;;;;;;;5017194;28;20152;-73
2023/06/01 00:59:52;;;;;;;12.02;5.43;;;;;;;;;;5034942;28;20057;-73
2023/06/01 01:02:18;;;;;;;12.98;5.72;;;;;;;;;;5035011;28;20182;-73
2023/06/01 01:04:45;;;;;;;13.30;5.50;;;;;;;;;;5033516;28;20045;-73
2023/06/01 01:07:20;;;;;;;14.77;5.43;;;;;;;;;;5034837;28;20067;-73
2023/06/01 01:09:55;;;;;;;15.13;5.53;;;;;;;;;;5039634;28;20041;-73
2023/06/01 01:12:32;;;;;;;14.00;5.50;;;;;;;;;;5053024;28;20102;-73
2023/06/01 01:15:13;;;;;;;14.13;5.25;;;;;;;;;;5054639;28;20041;-73
2023/06/01 01:17:42;;;;;;;12.57;5.55;;;;;;;;;;5046555;28;20100;-73
2023/06/01 01:20:15;;;;;;;11.60;6.03;;;;;;;;;;5034531;28;20052;-73
2023/06/01 01:22:53;;;;;;;11.48;5.93;;;;;;;;;;5034674;28;20042;-73
2023/06/01 01:25:27;;;;;;;11.48;5.65;;;;;;;;;;5034790;28;20073;-73
2023/06/01 01:28:13;;;;;;;10.50;5.50;;;;;;;;;;5034180;28;20049;-73
2023/06/01 01:30:41;;;;;;;15.45;5.95;;;;;;;;;;5048213;28;20047;-73
2023/06/01 01:33:08;;;;;;;10.63;5.03;;;;;;;;;;5053872;28;20126;-73
2023/06/01 01:35:34;;;;;;;13.40;5.45;;;;;;;;;;5054418;28;20071;-73
2023/06/01 01:38:00;;;;;;;13.95;6.13;;;;;;;;;;5053849;28;20370;-73
2023/06/01 01:40:26;;;;;;;13.02;5.65;;;;;;;;;;5053996;28;20049;-74
2023/06/01 01:42:53;;;;;;;16.55;5.63;;;;;;;;;;5053453;28;20049;-72
2023/06/01 01:45:19;;;;;;;10.43;5.30;;;;;;;;;;5052832;28;20086;-73
2023/06/01 01:47:58;;;;;;;13.32;5.18;;;;;;;;;;5035652;28;20082;-73
2023/06/01 01:50:30;;;;;;;15.57;5.28;;;;;;;;;;5047038;28;20091;-73
2023/06/01 01:52:56;;;;;;;14.30;5.20;;;;;;;;;;5040159;28;20045;-73
2023/06/01 01:55:24;;;;;;;13.48;5.35;;;;;;;;;;5054010;28;20091;-73
2023/06/01 01:57:53;;;;;;;11.30;4.63;;;;;;;;;;5053350;28;20114;-73
2023/06/01 02:00:19;;;;;;;11.38;5.25;;;;;;;;;;5053018;28;20059;-73
2023/06/01 02:02:46;;;;;;;13.30;5.15;;;;;;;;;;5053376;28;20045;-73
2023/06/01 02:05:12;;;;;;;10.43;5.03;;;;;;;;;;5053482;28;20509;-73
2023/06/01 02:07:38;;;;;;;12.52;4.80;;;;;;;;;;5053040;28;20497;-73
2023/06/01 02:10:05;;;;;;;11.65;4.90;;;;;;;;;;5052897;28;20100;-73
2023/06/01 02:12:31;;;;;;;9.48;4.30;;;;;;;;;;5036150;28;20441;-73
2023/06/01 02:14:57;;;;;;;10.82;4.57;;;;;;;;;;5033769;28;20107;-73
2023/06/01 02:17:25;;;;;;;9.43;4.50;;;;;;;;;;5033395;28;20211;-73
2023/06/01 02:19:51;;;;;;;10.13;4.28;;;;;;;;;;5042837;28;20033;-73
2023/06/01 02:22:17;;;;;;;8.52;4.20;;;;;;;;;;5052721;28;20410;-73
2023/06/01 02:24:43;;;;;;;12.65;4.68;;;;;;;;;;5035635;28;20067;-73
2023/06/01 02:27:09;;;;;;;9.75;4.03;;;;;;;;;;5052707;28;20052;-73
2023/06/01 02:29:35;;;;;;;11.18;3.70;;;;;;;;;;5053085;28;20182;-73
2023/06/01 02:32:01;;;;;;;7.90;3.95;;;;;;;;;;5034926;28;20087;-73
2023/06/01 02:34:27;;;;;;;9.20;3.60;;;;;;;;;;5034958;28;20049;-73
2023/06/01 02:36:57;;;;;;;10.23;3.67;;;;;;;;;;5053095;28;20410;-73
2023/06/01 02:39:23;;;;;;;12.45;4.00;;;;;;;;;;5052933;28;20076;-73
2023/06/01 02:41:49;;;;;;;12.73;4.10;;;;;;;;;;5052649;28;20083;-73
2023/06/01 02:44:15;;;;;;;10.88;3.92;;;;;;;;;;5052537;28;20497;-73
2023/06/01 02:46:42;;;;;;;11.77;4.10;;;;;;;;;;5051721;28;20045;-73
2023/06/01 02:49:08;;;;;;;7.35;3.92;;;;;;;;;;5052074;28;20107;-73
2023/06/01 02:51:34;;;;;;;13.70;3.97;;;;;;;;;;5034727;28;20051;-73
2023/06/01 02:54:00;;;;;;;8.95;3.90;;;;;;;;;;5049391;28;20478;-73
2023/06/01 02:56:26;;;;;;;12.38;4.20;;;;;;;;;;5048181;28;20049;-73
2023/06/01 02:58:52;;;;;;;12.32;4.00;;;;;;;;;;5032634;28;20587;-74
2023/06/01 03:01:20;;;;;;;11.52;4.60;;;;;;;;;;5046893;28;20037;-73
2023/06/01 03:03:47;;;;;;;17.10;4.82;;;;;;;;;;5032592;28;20052;-73
2023/06/01 03:06:13;;;;;;;13.27;4.35;;;;;;;;;;5017716;28;20056;-73
2023/06/01 03:08:39;;;;;;;11.68;4.90;;;;;;;;;;5066145;28;20093;-74
2023/06/01 03:11:05;;;;;;;11.95;4.63;;;;;;;;;;5034684;28;20155;-73
2023/06/01 03:13:31;;;;;;;10.27;4.78;;;;;;;;;;5052262;28;20095;-74
2023/06/01 03:15:57;;;;;;;11.40;4.57;;;;;;;;;;5033661;28;20140;-74
2023/06/01 03:18:23;;;;;;;12.15;5.03;;;;;;;;;;5052450;28;20401;-73
2023/06/01 03:20:49;;;;;;;11.45;4.90;;;;;;;;;;5051504;28;20064;-73
2023/06/01 03:23:16;;;;;;;12.40;5.07;;;;;;;;;;5051804;28;20075;-74
2023/06/01 03:25:42;;;;;;;14.35;5.32;;;;;;;;;;5052411;28;20083;-74
2023/06/01 03:28:08;;;;;;;11.60;4.95;;;;;;;;;;5051891;28;20053;-74
2023/06/01 03:30:34;;;;;;;13.43;5.38;;;;;;;;;;5051524;28;20393;-74
2023/06/01 03:33:00;;;;;;;13.02;5.60;;;;;;;;;;5050347;28;20036;-74
2023/06/01 03:35:26;;;;;;;15.23;5.78;;;;;;;;;;5051510;28;20102;-74
2023/06/01 03:37:53;;;;;;;14.27;5.22;;;;;;;;;;5052096;28;20047;-73
2023/06/01 03:40:19;;;;;;;16.65;5.65;;;;;;;;;;5052124;28;20044;-73
2023/06/01 03:42:46;;;;;;;14.35;5.55;;;;;;;;;;5052087;28;20080;-73
2023/06/01 03:45:12;;;;;;;13.52;5.10;;;;;;;;;;5034272;28;20501;-73
2023/06/01 03:47:39;;;;;;;13.68;5.35;;;;;;;;;;5052882;28;20045;-73
2023/06/01 03:50:08;;;;;;;12.50;4.97;;;;;;;;;;5034627;28;20049;-73
2023/06/01 03:52:35;;;;;;;13.95;5.00;;;;;;;;;;5052026;28;20045;-73
2023/06/01 03:55:01;;;;;;;21.35;5.18;;;;;;;;;;5040446;28;20208;-73
2023/06/01 03:57:27;;;;;;;16.45;5.28;;;;;;;;;;5032051;28;20379;-73
2023/06/01 03:59:54;;;;;;;11.95;5.20;;;;;;;;;;5047275;28;20049;-73
2023/06/01 04:02:21;;;;;;;13.88;5.25;;;;;;;;;;5051003;28;20173;-73
2023/06/01 04:04:48;;;;;;;12.55;5.70;;;;;;;;;;5034063;28;20049;-73
2023/06/01 04:07:18;;;;;;;12.75;5.57;;;;;;;;;;5051767;28;20065;-73
2023/06/01 04:09:44;;;;;;;17.75;6.10;;;;;;;;;;5033768;28;20048;-73
2023/06/01 04:12:11;;;;;;;13.10;5.50;;;;;;;;;;5049958;28;20561;-72
2023/06/01 04:14:37;;;;;;;12.57;5.43;;;;;;;;;;5054892;28;20051;-72
2023/06/01 04:17:03;;;;;;;12.93;5.60;;;;;;;;;;5056013;28;20055;-72
2023/06/01 04:19:29;;;;;;;13.50;5.38;;;;;;;;;;5031009;28;20052;-73
2023/06/01 04:21:57;;;;;;;14.00;5.40;;;;;;;;;;5035674;28;20045;-73
2023/06/01 04:24:23;;;;;;;14.02;5.20;;;;;;;;;;5035693;28;20045;-72
2023/06/01 04:26:50;;;;;;;14.60;5.40;;;;;;;;;;5035612;28;20037;-73
2023/06/01 04:29:19;;;;;;;12.07;4.70;;;;;;;;;;5035283;28;20045;-72
2023/06/01 04:31:45;;;;;;;11.38;4.47;;;;;;;;;;5035622;28;20085;-72
2023/06/01 04:34:12;;;;;;;14.73;4.75;;;;;;;;;;5017657;28;20045;-73
2023/06/01 04:36:39;;;;;;;9.75;4.30;;;;;;;;;;5018243;28;20049;-72
2023/06/01 04:39:06;;;;;;;12.52;4.90;;;;;;;;;;5033918;28;20502;-73
2023/06/01 04:41:32;;;;;;;12.32;4.55;;;;;;;;;;5034833;28;20049;-73
2023/06/01 04:43:58;;;;;;;8.60;4.10;;;;;;;;;;5017353;28;20138;-73
2023/06/01 04:46:26;;;;;;;11.32;4.43;;;;;;;;;;5016583;28;20401;-73
2023/06/01 04:48:57;;;;;;;10.25;4.20;;;;;;;;;;5035115;28;20470;-73
2023/06/01 04:51:23;;;;;;;10.15;3.95;;;;;;;;;;5034797;28;20075;-72
2023/06/01 04:53:51;;;;;;;10.75;4.32;;;;;;;;;;5034641;28;20120;-73
2023/06/01 04:56:20;;;;;;;11.15;4.05;;;;;;;;;;5034969;28;20132;-72
2023/06/01 04:58:50;;;;;;;9.43;3.72;;;;;;;;;;5034950;28;20136;-73
2023/06/01 05:01:17;;;;;;;11.77;4.47;;;;;;;;;;5045107;28;20123;-73
2023/06/01 05:03:45;;;;;;;12.52;4.25;;;;;;;;;;5054815;28;20072;-72
2023/06/01 05:06:11;;;;;;;8.93;4.43;;;;;;;;;;5054720;28;20098;-73
2023/06/01 05:08:41;;;;;;;10.05;4.20;;;;;;;;;;5054690;28;20080;-72
2023/06/01 05:11:07;;;;;;;10.25;4.35;;;;;;;;;;5017911;28;20045;-73
2023/06/01 05:13:37;;;;;;;8.90;4.40;;;;;;;;;;5053161;28;20158;-72
2023/06/01 05:16:03;;;;;;;13.20;4.55;;;;;;;;;;5054795;28;20048;-73
2023/06/01 05:18:30;;;;;;;9.27;4.65;;;;;;;;;;5054489;28;20088;-72
2023/06/01 05:20:56;;;;;;;10.65;4.68;;;;;;;;;;5054127;28;20091;-72
2023/06/01 05:23:22;;;;;;;12.55;4.70;;;;;;;;;;5054281;28;20041;-73
2023/06/01 05:25:49;;;;;;;12.52;5.30;;;;;;;;;;5068678;28;20036;-72
2023/06/01 05:28:15;;;;;;;12.65;5.25;;;;;;;;;;5036212;28;20052;-73
2023/06/01 05:30:41;;;;;;;12.85;5.55;;;;;;;;;;5054312;28;20448;-72
2023/06/01 05:33:07;;;;;;;8.80;4.93;;;;;;;;;;5054030;28;20033;-73
2023/06/01 05:35:33;;;;;;;11.88;5.30;;;;;;;;;;5054096;28;20057;-73
2023/06/01 05:37:59;;;;;;;12.15;5.25;;;;;;;;;;5053853;28;20438;-72
2023/06/01 05:40:25;;;;;;;7.25;4.65;;;;;;;;;;5053409;28;20037;-73
2023/06/01 05:42:51;;;;;;;11.88;5.32;;;;;;;;;;5051983;28;20419;-74
2023/06/01 05:45:18;;;;;;;8.70;4.97;;;;;;;;;;5053591;28;20047;-73
2023/06/01 05:47:44;;;;;;;9.80;4.20;;;;;;;;;;5053634;28;20124;-72
2023/06/01 05:50:10;;;;;;;11.75;4.43;;;;;;;;;;5053568;28;20084;-73
2023/06/01 05:52:36;;;;;;;11.10;4.72;;;;;;;;;;5035519;28;20174;-73
2023/06/01 05:55:03;;;;;;;9.13;4.07;;;;;;;;;;5053299;28;20505;-72
2023/06/01 05:57:29;;;;;;;10.02;4.50;;;;;;;;;;5053558;28;20480;-72
2023/06/01 05:59:55;;;;;;;11.20;4.07;;;;;;;;;;5053561;28;20409;-72
2023/06/01 06:02:21;;;;;;;11.38;4.10;;;;;;;;;;5053637;28;20041;-73
2023/06/01 06:04:47;;;;;;;14.02;4.63;;;;;;;;;;5053093;28;20045;-73
2023/06/01 06:07:13;;;;;;;10.00;4.07;;;;;;;;;;5053257;28;20079;-73
2023/06/01 06:09:40;;;;;;;9.05;4.13;;;;;;;;;;5053346;28;20080;-73
2023/06/01 06:12:06;;;;;;;14.50;4.90;;;;;;;;;;5035473;28;20048;-73
2023/06/01 06:14:32;;;;;;;10.60;4.82;;;;;;;;;;5035099;28;20051;-73
2023/06/01 06:16:59;;;;;;;12.13;4.55;;;;;;;;;;5053357;28;20045;-73
2023/06/01 06:19:25;;;;;;;10.43;4.32;;;;;;;;;;5053180;28;20122;-73
2023/06/01 06:21:52;;;;;;;10.60;3.92;;;;;;;;;;5039420;28;20041;-74
2023/06/01 06:24:18;;;;;;;8.48;3.40;;;;;;;;;;5028638;28;20450;-74
2023/06/01 06:26:43;;;;;;;7.05;2.92;;;;;;;;;;5029828;28;20404;-73
2023/06/01 06:29:10;;;;;;;10.18;3.40;;;;;;;;;;5047762;28;20039;-73
2023/06/01 06:31:36;;;;;;;7.50;3.10;;;;;;;;;;5033210;28;20375;-73
2023/06/01 06:34:02;;;;;;;7.53;2.80;;;;;;;;;;5032978;28;20081;-73
2023/06/01 06:36:28;;;;;;;7.30;2.55;;;;;;;;;;5033002;28;20092;-73
2023/06/01 06:38:54;;;;;;;6.63;2.63;;;;;;;;;;5015120;28;20620;-74
2023/06/01 06:41:20;;;;;;;6.25;2.78;;;;;;;;;;5050579;28;20055;-71
2023/06/01 06:43:47;;;;;;;7.88;2.85;;;;;;;;;;5052588;28;20052;-72
2023/06/01 06:46:13;;;;;;;7.07;2.65;;;;;;;;;;5053020;28;20049;-73
2023/06/01 06:48:39;;;;;;;5.28;2.50;;;;;;;;;;5052599;28;20040;-73
2023/06/01 06:51:05;;;;;;;7.93;2.85;;;;;;;;;;5052398;28;20036;-73
2023/06/01 06:53:33;;;;;;;6.38;2.75;;;;;;;;;;5052206;28;20076;-73
2023/06/01 06:55:59;;;;;;;5.13;2.80;;;;;;;;;;5052392;28;20115;-73
2023/06/01 06:58:25;;;;;;;8.25;3.15;;;;;;;;;;5051267;28;20037;-74
2023/06/01 07:00:51;;;;;;;6.43;3.00;;;;;;;;;;5053145;28;20044;-73
2023/06/01 07:03:17;;;;;;;8.63;2.83;;;;;;;;;;5053142;28;20048;-73
2023/06/01 07:05:45;;;;;;;7.10;2.88;;;;;;;;;;5052922;28;20051;-73
2023/06/01 07:08:11;;;;;;;6.60;3.00;;;;;;;;;;5052603;28;20091;-73
2023/06/01 07:10:37;;;;;;;8.35;2.90;;;;;;;;;;5052097;28;20059;-72
2023/06/01 07:13:03;;;;;;;9.43;3.15;;;;;;;;;;5052151;28;20072;-72
2023/06/01 07:15:29;;;;;;;5.95;3.00;;;;;;;;;;5034607;28;20099;-73
2023/06/01 07:17:55;;;;;;;7.82;3.15;;;;;;;;;;5051024;28;20037;-72
2023/06/01 07:20:21;;;;;;;7.13;3.10;;;;;;;;;;5052192;28;20045;-72
2023/06/01 07:22:49;;;;;;;7.53;3.20;;;;;;;;;;5033810;28;20048;-72
2023/06/01 07:25:16;;;;;;;5.82;2.97;;;;;;;;;;5067413;28;20132;-72
2023/06/01 07:27:45;;;;;;;6.18;3.22;;;;;;;;;;5051816;28;20110;-74
2023/06/01 07:30:12;;;;;;;8.63;3.10;;;;;;;;;;5051976;28;20123;-74
2023/06/01 07:32:38;;;;;;;6.85;3.08;;;;;;;;;;5052085;28;20048;-71
2023/06/01 07:35:06;;;;;;;10.32;3.40;;;;;;;;;;5051595;28;20044;-72
2023/06/01 07:37:32;;;;;;;7.90;2.95;;;;;;;;;;5040126;28;20045;-72
2023/06/01 07:39:58;;;;;;;10.25;3.40;;;;;;;;;;5031809;28;20089;-73
2023/06/01 07:42:24;;;;;;;7.25;3.58;;;;;;;;;;5014243;28;20467;-72
2023/06/01 07:44:53;;;;;;;9.63;3.33;;;;;;;;;;5050717;28;20142;-73
2023/06/01 07:47:21;;;;;;;7.60;3.38;;;;;;;;;;5050632;28;20045;-73
2023/06/01 07:49:47;;;;;;;8.00;3.15;;;;;;;;;;5036741;28;20057;-74
2023/06/01 07:52:13;;;;;;;9.55;3.17;;;;;;;;;;5055402;28;20045;-74
2023/06/01 07:54:39;;;;;;;8.60;3.38;;;;;;;;;;5034317;28;20041;-75
2023/06/01 07:57:06;;;;;;;5.32;2.80;;;;;;;;;;5055471;28;20063;-73
2023/06/01 07:59:32;;;;;;;4.90;2.30;;;;;;;;;;5047050;28;20453;-74
2023/06/01 08:02:00;;;;;;;5.80;2.35;;;;;;;;;;5035960;28;20132;-74
2023/06/01 08:04:27;;;;;;;4.30;1.90;;;;;;;;;;5035317;28;20068;-73
2023/06/01 08:06:53;;;;;;;4.20;1.92;;;;;;;;;;5038844;28;20057;-74
2023/06/01 08:09:23;;;;;;;5.72;2.00;;;;;;;;;;5054505;28;20052;-72
2023/06/01 08:11:50;;;;;;;4.95;2.30;;;;;;;;;;5037718;28;20425;-72
2023/06/01 08:14:16;;;;;;;3.55;2.10;;;;;;;;;;5070625;28;20513;-73
2023/06/01 08:16:43;;;;;;;4.40;2.30;;;;;;;;;;5055423;28;20063;-74
2023/06/01 08:19:09;;;;;;;8.27;2.80;;;;;;;;;;5055325;28;20045;-73
2023/06/01 08:21:35;;;;;;;11.00;2.80;;;;;;;;;;5054278;28;20404;-73
2023/06/01 08:24:01;;;;;;;8.70;2.90;;;;;;;;;;5067705;28;20049;-73
2023/06/01 08:26:28;;;;;;;5.68;2.80;;;;;;;;;;5025117;28;20146;-73
2023/06/01 08:28:55;;;;;;;8.38;3.22;;;;;;;;;;5055130;28;20049;-73
2023/06/01 08:31:22;;;;;;;10.52;4.00;;;;;;;;;;5055201;28;20166;-73
2023/06/01 08:33:49;;;;;;;10.15;3.90;;;;;;;;;;5052674;28;20059;-73
2023/06/01 08:36:15;;;;;;;7.65;3.80;;;;;;;;;;5053009;28;20128;-73
2023/06/01 08:38:41;;;;;;;14.80;4.40;;;;;;;;;;5054975;28;20045;-72
2023/06/01 08:41:18;;;;;;;12.10;4.10;;;;;;;;;;5037070;28;20470;-73
2023/06/01 08:43:45;;;;;;;10.45;4.20;;;;;;;;;;5053934;28;20041;-74
2023/06/01 08:46:12;;;;;;;12.50;4.10;;;;;;;;;;5036690;28;20045;-74
2023/06/01 08:48:39;;;;;;;11.32;4.13;;;;;;;;;;5054941;28;20406;-72
2023/06/01 08:51:05;;;;;;;12.15;4.40;;;;;;;;;;5054144;28;20063;-78
2023/06/01 08:53:32;;;;;;;13.93;4.57;;;;;;;;;;5036665;28;20052;-73
2023/06/01 08:55:58;;;;;;;13.65;4.40;;;;;;;;;;5035312;28;20049;-73
2023/06/01 08:58:24;;;;;;;14.88;4.00;;;;;;;;;;5034397;28;20441;-73
2023/06/01 09:00:53;;;;;;;11.55;4.00;;;;;;;;;;5033921;28;20457;-74
2023/06/01 09:03:19;;;;;;;13.85;3.70;;;;;;;;;;5050082;28;20140;-72
2023/06/01 09:05:45;;;;;;;11.30;3.85;;;;;;;;;;5034950;28;20041;-73
2023/06/01 09:08:11;;;;;;;10.98;3.60;;;;;;;;;;5034531;28;20046;-73
2023/06/01 09:10:37;;;;;;;15.07;3.88;;;;;;;;;;5034498;28;20045;-73
2023/06/01 09:13:04;;;;;;;13.25;3.75;;;;;;;;;;5050271;28;20052;-74
2023/06/01 09:15:30;;;;;;;11.55;3.22;;;;;;;;;;5034097;28;20141;-73
2023/06/01 09:18:10;;;;;;;12.07;3.47;;;;;;;;;;5049509;28;20053;-74
2023/06/01 09:20:38;;;;;;;9.93;3.38;;;;;;;;;;5033592;28;20544;-73
2023/06/01 09:23:04;;;;;;;10.52;3.30;;;;;;;;;;5053923;28;20439;-73
2023/06/01 09:25:31;;;;;;;12.88;3.28;;;;;;;;;;5034881;28;20398;-73
2023/06/01 09:27:58;;;;;;;12.43;3.20;;;;;;;;;;5052866;28;20544;-75
2023/06/01 09:30:25;;;;;;;11.18;3.40;;;;;;;;;;5054611;28;20049;-76
2023/06/01 09:32:55;;;;;;;11.13;3.03;;;;;;;;;;5035934;28;20036;-74
2023/06/01 09:35:40;;;;;;;10.15;3.20;;;;;;;;;;5036309;28;20051;-74
2023/06/01 09:38:06;;;;;;;9.07;3.08;;;;;;;;;;5036301;28;20037;-74
2023/06/01 09:40:33;;;;;;;11.23;3.10;;;;;;;;;;5054432;28;20071;-74
2023/06/01 09:42:59;;;;;;;10.00;3.33;;;;;;;;;;5054224;28;20049;-72
2023/06/01 09:45:25;;;;;;;10.75;3.22;;;;;;;;;;5054330;28;20543;-73
2023/06/01 09:47:52;;;;;;;12.45;3.20;;;;;;;;;;5052941;28;20472;-74
2023/06/01 09:50:37;;;;;;;13.18;3.47;;;;;;;;;;5053696;28;20053;-73
2023/06/01 09:53:04;;;;;;;10.15;3.00;;;;;;;;;;5053039;28;20406;-73
2023/06/01 09:55:30;;;;;;;11.57;3.30;;;;;;;;;;5052885;28;20040;-73
2023/06/01 09:58:18;;;;;;;7.90;2.90;;;;;;;;;;5035729;28;20114;-72
2023/06/01 10:00:45;;;;;;;10.57;2.85;;;;;;;;;;5054073;28;20401;-72
2023/06/01 10:03:11;;;;;;;7.15;2.75;;;;;;;;;;5052595;28;20048;-72
2023/06/01 10:05:37;;;;;;;9.55;2.97;;;;;;;;;;5054051;28;20124;-72
2023/06/01 10:08:03;;;;;;;9.80;3.38;;;;;;;;;;5051900;28;20094;-72
2023/06/01 10:10:30;;;;;;;10.45;3.00;;;;;;;;;;5051659;28;20055;-72
2023/06/01 10:12:56;;;;;;;9.55;3.22;;;;;;;;;;5053291;28;20044;-73
2023/06/01 10:15:22;;;;;;;12.30;3.40;;;;;;;;;;5052070;28;20064;-73
2023/06/01 10:17:52;;;;;;;8.98;3.40;;;;;;;;;;5051514;28;20477;-72
2023/06/01 10:20:18;;;;;;;11.85;3.50;;;;;;;;;;5051976;28;20116;-72
2023/06/01 10:22:45;;;;;;;12.02;3.03;;;;;;;;;;5044062;28;20045;-72
2023/06/01 10:25:14;;;;;;;10.45;3.55;;;;;;;;;;5048931;28;20045;-73
2023/06/01 10:27:42;;;;;;;9.95;2.97;;;;;;;;;;5033326;28;20050;-73
2023/06/01 10:30:11;;;;;;;15.15;3.78;;;;;;;;;;5033501;28;20053;-74
2023/06/01 10:32:37;;;;;;;9.73;3.50;;;;;;;;;;5033447;28;20055;-73
2023/06/01 10:35:06;;;;;;;11.93;3.63;;;;;;;;;;5033878;28;20128;-73
2023/06/01 10:37:32;;;;;;;8.88;3.10;;;;;;;;;;5033483;28;20041;-73
2023/06/01 10:40:17;;;;;;;7.03;3.05;;;;;;;;;;5033081;28;20045;-72
2023/06/01 10:42:43;;;;;;;8.35;2.97;;;;;;;;;;5048306;28;20132;-72
2023/06/01 10:45:29;;;;;;;9.55;3.08;;;;;;;;;;5048597;28;20528;-73
2023/06/01 10:47:55;;;;;;;10.15;3.05;;;;;;;;;;5032756;28;20053;-74
2023/06/01 10:50:21;;;;;;;14.05;3.55;;;;;;;;;;5032620;28;20056;-72
2023/06/01 10:52:47;;;;;;;11.57;3.75;;;;;;;;;;5033141;28;20116;-73
2023/06/01 10:55:13;;;;;;;12.23;3.22;;;;;;;;;;5048190;28;20490;-73
2023/06/01 10:57:40;;;;;;;9.57;2.83;;;;;;;;;;5032668;28;20120;-74
2023/06/01 11:00:09;;;;;;;10.32;3.05;;;;;;;;;;5032863;28;20109;-73
2023/06/01 11:02:35;;;;;;;10.10;3.00;;;;;;;;;;5032958;28;20052;-73
2023/06/01 11:05:37;;;;;;;10.15;2.75;;;;;;;;;;5032866;28;20171;-74
2023/06/01 11:08:06;;;;;;;9.30;3.17;;;;;;;;;;4971321;28;20054;-72
2023/06/01 11:10:53;;;;;;;8.73;2.80;;;;;;;;;;5038097;28;20355;-72
2023/06/01 11:13:25;;;;;;;6.78;2.45;;;;;;;;;;5032363;28;20513;-72
2023/06/01 11:16:10;;;;;;;9.23;2.70;;;;;;;;;;5031403;28;20053;-72
2023/06/01 11:18:46;;;;;;;9.05;2.70;;;;;;;;;;5030934;28;20045;-72
2023/06/01 11:21:17;;;;;;;8.32;2.85;;;;;;;;;;5032806;28;20059;-72
2023/06/01 11:23:44;;;;;;;6.90;2.50;;;;;;;;;;5047199;28;20136;-72
2023/06/01 11:26:13;;;;;;;7.63;2.78;;;;;;;;;;5032813;28;20052;-73
2023/06/01 11:28:40;;;;;;;6.82;2.63;;;;;;;;;;5014698;28;20081;-72
2023/06/01 11:31:09;;;;;;;9.13;2.83;;;;;;;;;;5032421;28;20486;-72
2023/06/01 11:33:38;;;;;;;11.63;2.95;;;;;;;;;;5032291;28;20050;-73
2023/06/01 11:36:05;;;;;;;10.05;2.80;;;;;;;;;;5015191;28;20053;-73
2023/06/01 11:38:41;;;;;;;7.88;2.97;;;;;;;;;;5047919;28;20087;-73
2023/06/01 11:41:08;;;;;;;10.55;3.05;;;;;;;;;;5032609;28;20052;-74
2023/06/01 11:43:34;;;;;;;10.90;3.22;;;;;;;;;;5032258;28;20056;-73
2023/06/01 11:46:04;;;;;;;10.77;3.22;;;;;;;;;;5031845;28;20077;-73
2023/06/01 11:48:30;;;;;;;10.35;3.40;;;;;;;;;;5030374;28;20084;-73
2023/06/01 11:50:56;;;;;;;11.57;3.50;;;;;;;;;;5031668;28;20049;-73
2023/06/01 11:53:23;;;;;;;11.23;3.50;;;;;;;;;;5047587;28;20143;-73
2023/06/01 11:55:49;;;;;;;13.05;3.22;;;;;;;;;;5033905;28;20079;-73
2023/06/01 11:58:21;;;;;;;10.45;3.55;;;;;;;;;;5032044;28;20037;-73
2023/06/01 12:00:47;;;;;;;10.32;3.30;;;;;;;;;;5032626;28;20076;-73
2023/06/01 12:03:13;;;;;;;10.00;3.00;;;;;;;;;;5032098;28;20103;-73
2023/06/01 12:05:44;;;;;;;11.18;3.25;;;;;;;;;;5031203;28;20045;-73
2023/06/01 12:08:13;;;;;;;9.68;3.13;;;;;;;;;;5047311;28;20150;-72
2023/06/01 12:10:42;;;;;;;9.70;3.45;;;;;;;;;;5032124;28;20128;-72
2023/06/01 12:13:08;;;;;;;9.20;2.92;;;;;;;;;;5031874;28;20056;-73
2023/06/01 12:15:34;;;;;;;9.55;3.20;;;;;;;;;;5032320;28;20128;-72
2023/06/01 12:18:00;;;;;;;8.25;3.10;;;;;;;;;;5032074;28;20038;-72
2023/06/01 12:20:35;;;;;;;5.80;2.85;;;;;;;;;;5031760;28;20490;-72
2023/06/01 12:23:03;;;;;;;7.67;3.20;;;;;;;;;;5031783;28;20490;-72
2023/06/01 12:25:32;;;;;;;9.82;3.10;;;;;;;;;;5028848;28;20291;-73
2023/06/01 12:28:02;;;;;;;8.88;3.03;;;;;;;;;;5051543;28;20047;-73
2023/06/01 12:30:28;;;;;;;11.95;3.40;;;;;;;;;;5051984;28;20057;-73
2023/06/01 12:32:54;;;;;;;9.68;3.70;;;;;;;;;;5033956;28;20088;-71
2023/06/01 12:35:24;;;;;;;7.53;3.08;;;;;;;;;;5054709;28;20136;-72
2023/06/01 12:38:03;;;;;;;15.82;10.35;;;;;;;;;;5054400;28;20045;-73
2023/06/01 12:40:29;;;;;;;11.00;4.03;;;;;;;;;;5037710;28;20192;-72
2023/06/01 12:42:55;;;;;;;9.02;3.63;;;;;;;;;;5034365;28;20102;-72
2023/06/01 12:45:21;;;;;;;11.60;3.67;;;;;;;;;;5047555;28;20044;-73
2023/06/01 12:47:47;;;;;;;11.82;3.65;;;;;;;;;;5046158;28;20058;-72
2023/06/01 12:50:13;;;;;;;10.30;3.65;;;;;;;;;;5052283;28;20405;-73
2023/06/01 12:52:40;;;;;;;11.80;4.05;;;;;;;;;;5035107;28;20052;-72
2023/06/01 12:55:07;;;;;;;18.85;4.47;;;;;;;;;;5037170;28;20114;-72
2023/06/01 12:57:33;;;;;;;11.80;4.05;;;;;;;;;;5054800;28;20083;-70
2023/06/01 12:59:59;;;;;;;13.50;4.20;;;;;;;;;;5047968;28;20053;-71
2023/06/01 13:02:25;;;;;;;13.20;3.60;;;;;;;;;;5034989;28;20513;-72
2023/06/01 13:04:53;;;;;;;12.63;3.70;;;;;;;;;;5050059;28;20048;-73
2023/06/01 13:07:23;;;;;;;10.07;3.17;;;;;;;;;;5036885;28;20072;-73
2023/06/01 13:09:49;;;;;;;16.80;4.15;;;;;;;;;;5036820;28;20138;-73
2023/06/01 13:12:15;;;;;;;12.32;3.60;;;;;;;;;;5055255;28;20041;-73
2023/06/01 13:14:41;;;;;;;10.90;3.92;;;;;;;;;;5054844;28;20124;-73
2023/06/01 13:17:07;;;;;;;13.70;4.18;;;;;;;;;;5055094;28;20140;-73
2023/06/01 13:19:34;;;;;;;17.85;4.07;;;;;;;;;;5036835;28;20433;-73
2023/06/01 13:22:00;;;;;;;10.65;3.88;;;;;;;;;;5054925;28;20045;-72
2023/06/01 13:24:26;;;;;;;13.23;3.28;;;;;;;;;;5017881;28;20057;-73
2023/06/01 13:26:52;;;;;;;7.75;2.88;;;;;;;;;;5046906;28;20052;-73
2023/06/01 13:29:18;;;;;;;10.25;3.53;;;;;;;;;;5031230;28;20041;-71
2023/06/01 13:31:44;;;;;;;12.27;3.72;;;;;;;;;;5034570;28;20042;-71
2023/06/01 13:34:11;;;;;;;10.45;3.10;;;;;;;;;;5034427;28;20379;-71
2023/06/01 13:36:37;;;;;;;7.85;3.10;;;;;;;;;;5044893;28;20058;-71
2023/06/01 13:39:04;;;;;;;6.40;2.78;;;;;;;;;;5032614;28;20042;-71
2023/06/01 13:41:30;;;;;;;7.90;2.45;;;;;;;;;;5016724;28;20061;-72
2023/06/01 13:43:56;;;;;;;7.75;2.78;;;;;;;;;;5034688;28;20141;-71
2023/06/01 13:46:22;;;;;;;12.20;3.05;;;;;;;;;;5031815;28;20084;-70
2023/06/01 13:48:48;;;;;;;10.85;3.38;;;;;;;;;;5032261;28;20053;-71
2023/06/01 13:51:14;;;;;;;11.15;3.38;;;;;;;;;;5032523;28;20402;-71
2023/06/01 13:53:40;;;;;;;9.82;2.90;;;;;;;;;;5031338;28;20046;-71
2023/06/01 13:56:06;;;;;;;11.40;2.70;;;;;;;;;;5032346;28;20041;-71
2023/06/01 13:58:34;;;;;;;8.60;2.40;;;;;;;;;;5033808;28;20072;-72
2023/06/01 14:01:00;;;;;;;8.48;2.63;;;;;;;;;;5048639;28;20095;-73
2023/06/01 14:03:26;;;;;;;8.45;2.88;;;;;;;;;;5033544;28;20129;-70
2023/06/01 14:05:53;;;;;;;10.65;3.35;;;;;;;;;;5031540;28;20054;-69
2023/06/01 14:08:19;;;;;;;6.97;2.65;;;;;;;;;;5066067;28;20049;-69
2023/06/01 14:10:45;;;;;;;10.85;2.78;;;;;;;;;;5049382;28;20049;-70
2023/06/01 14:13:11;;;;;;;8.80;2.63;;;;;;;;;;5032700;28;20053;-69
2023/06/01 14:15:37;;;;;;;9.13;2.60;;;;;;;;;;5050768;28;20048;-69
2023/06/01 14:18:03;;;;;;;6.75;2.60;;;;;;;;;;5049410;28;20041;-70
2023/06/01 14:20:30;;;;;;;9.55;2.78;;;;;;;;;;5032732;28;20072;-69
2023/06/01 14:22:56;;;;;;;7.60;2.42;;;;;;;;;;5050025;28;20060;-69
2023/06/01 14:25:22;;;;;;;9.45;2.50;;;;;;;;;;5050204;28;20045;-69
2023/06/01 14:27:48;;;;;;;9.75;2.53;;;;;;;;;;5050428;28;20079;-69
2023/06/01 14:30:14;;;;;;;5.80;1.92;;;;;;;;;;5065431;28;20088;-69
2023/06/01 14:32:40;;;;;;;6.43;2.40;;;;;;;;;;5052363;28;20041;-74
2023/06/01 14:35:07;;;;;;;6.30;2.20;;;;;;;;;;5052403;28;20048;-75